createdAt,value
2023-04-01T10:37:05.570Z,38.72
2023-04-01T10:43:33.818Z,18.17
2023-04-01T10:48:42.720Z,48.65
2023-04-01T10:53:51.077Z,14.12
2023-04-01T10:58:59.990Z,21.45
2023-04-01T11:04:09.524Z,11.20
2023-04-01T11:09:18.959Z,21.37
2023-04-01T11:14:28.279Z,17.68
2023-04-01T11:19:37.432Z,28.80
2023-04-01T11:24:46.823Z,29.83
2023-04-01T11:30:00.246Z,25.63
2023-04-01T11:35:04.127Z,22.04
2023-04-01T11:40:12.816Z,20.35
2023-04-01T11:45:21.139Z,21.75
2023-04-01T11:50:31.767Z,16.65
2023-04-01T11:55:30.003Z,15.15
2023-04-01T12:00:40.696Z,15.84
2023-04-01T12:05:41.036Z,17.15
2023-04-01T12:10:40.633Z,15.63
2023-04-01T12:15:49.672Z,15.93
2023-04-01T12:20:59.201Z,17.19
2023-04-01T12:26:07.485Z,16.12
2023-04-01T12:31:17.474Z,16.09
2023-04-01T12:36:26.656Z,15.59
2023-04-01T12:41:35.360Z,17.64
2023-04-01T12:46:44.114Z,16.12
2023-04-01T12:51:54.185Z,16.13
2023-04-01T12:56:53.950Z,16.17
2023-04-01T13:02:03.002Z,15.28
2023-04-01T13:07:11.493Z,15.12
2023-04-01T13:12:21.169Z,15.86
2023-04-01T13:17:31.835Z,19.36
2023-04-01T13:22:31.449Z,14.33
2023-04-01T13:27:41.139Z,13.79
2023-04-01T13:32:51.924Z,14.48
2023-04-01T13:37:51.088Z,16.05
2023-04-01T13:43:01.888Z,15.27
2023-04-01T13:48:01.696Z,15.20
2023-04-01T13:53:11.854Z,15.78
2023-04-01T13:58:09.932Z,16.67
2023-04-01T14:03:19.787Z,15.41
2023-04-01T14:08:28.653Z,15.35
2023-04-01T14:13:38.601Z,15.21
2023-04-01T14:18:49.418Z,15.30
2023-04-01T14:23:48.693Z,15.11
2023-04-01T14:28:57.511Z,15.18
2023-04-01T14:34:09.422Z,15.48
2023-04-01T14:39:09.041Z,15.21
2023-04-01T14:44:18.044Z,15.90
2023-04-01T14:49:28.365Z,15.52
2023-04-01T14:54:27.080Z,15.16
2023-04-01T14:59:35.758Z,15.51
2023-04-01T15:04:44.567Z,16.02
2023-04-01T15:09:53.917Z,15.64
2023-04-01T15:15:03.087Z,15.77
2023-04-01T15:20:11.359Z,15.43
2023-04-01T15:25:21.520Z,15.36
2023-04-01T15:30:21.532Z,15.91
2023-04-01T15:35:21.324Z,15.52
2023-04-01T15:40:31.555Z,15.59
2023-04-01T15:45:32.067Z,15.54
2023-04-01T15:50:41.335Z,16.98
2023-04-01T15:55:51.989Z,16.24
2023-04-01T16:00:51.414Z,15.81
2023-04-01T16:06:01.016Z,15.80
2023-04-01T16:11:09.421Z,15.02
2023-04-01T16:16:20.481Z,15.98
2023-04-01T16:21:18.650Z,15.55
2023-04-01T16:26:29.376Z,16.50
2023-04-01T16:31:28.719Z,15.57
2023-04-01T16:36:38.064Z,16.48
2023-04-01T16:41:47.090Z,16.70
2023-04-01T16:46:56.191Z,16.36
2023-04-01T16:52:06.085Z,15.50
2023-04-01T16:57:14.511Z,14.54
2023-04-01T17:02:24.368Z,15.35
2023-04-01T17:07:32.690Z,14.37
2023-04-01T17:12:42.265Z,13.38
2023-04-01T17:17:51.946Z,13.12
2023-04-01T17:23:00.982Z,13.24
2023-04-01T17:28:10.438Z,13.68
2023-04-01T17:33:18.753Z,12.80
2023-04-01T17:38:27.376Z,10.45
2023-04-01T17:43:35.461Z,9.02
2023-04-01T17:48:43.908Z,11.56
2023-04-01T17:53:53.223Z,9.17
2023-04-01T17:59:01.674Z,8.93
2023-04-01T18:04:12.393Z,9.20
2023-04-01T18:09:13.541Z,8.96
2023-04-01T18:14:12.592Z,10.76
2023-04-01T18:19:23.099Z,10.27
2023-04-01T18:24:22.088Z,10.57
2023-04-01T18:29:32.445Z,10.11
2023-04-01T18:34:30.864Z,8.10
2023-04-01T18:39:41.129Z,9.18
2023-04-01T18:44:40.696Z,9.68
2023-04-01T18:49:51.022Z,12.33
2023-04-01T18:54:49.322Z,12.42
2023-04-01T18:59:58.307Z,10.40
2023-04-01T19:05:08.334Z,10.32
2023-04-01T19:10:06.644Z,11.74
2023-04-01T19:15:15.216Z,13.26
2023-04-01T19:20:27.781Z,12.83
2023-04-01T19:25:26.421Z,14.57
2023-04-01T19:30:36.376Z,16.99
2023-04-01T19:35:47.297Z,20.08
2023-04-01T19:40:45.856Z,17.82
2023-04-01T19:45:54.221Z,19.22
2023-04-01T19:51:03.079Z,19.40
2023-04-01T19:56:12.755Z,22.47
2023-04-01T20:01:22.012Z,25.85
2023-04-01T20:06:29.886Z,30.63
2023-04-01T20:11:35.437Z,29.94
2023-04-01T20:16:44.266Z,44.37
2023-04-01T20:21:54.346Z,58.55
2023-04-01T20:26:54.102Z,71.02
2023-04-01T20:32:04.786Z,55.51
2023-04-01T20:37:05.418Z,61.62
2023-04-01T20:42:06.868Z,47.87
2023-04-01T20:47:05.498Z,49.11
2023-04-01T20:52:15.121Z,54.26
2023-04-01T20:57:23.532Z,58.43
2023-04-01T21:02:33.039Z,53.85
2023-04-01T21:07:42.166Z,41.83
2023-04-01T21:12:52.141Z,43.34
2023-04-01T21:18:02.390Z,38.85
2023-04-01T21:23:03.194Z,30.16
2023-04-01T21:28:02.487Z,28.72
2023-04-01T21:33:12.048Z,27.76
2023-04-01T21:38:20.516Z,35.19
2023-04-01T21:43:30.426Z,37.88
2023-04-01T21:48:39.806Z,41.99
2023-04-01T21:53:48.491Z,55.25
2023-04-01T21:58:58.061Z,59.23
2023-04-01T22:04:06.753Z,79.86
2023-04-01T22:09:15.022Z,87.00
2023-04-01T22:14:23.918Z,86.57
2023-04-01T22:19:34.486Z,117.14
2023-04-01T22:24:33.138Z,90.30
2023-04-01T22:29:42.904Z,95.94
2023-04-01T22:34:50.866Z,92.08
2023-04-01T22:40:00.215Z,75.73
2023-04-01T22:45:09.080Z,73.57
2023-04-01T22:50:18.464Z,89.12
2023-04-01T22:55:29.010Z,55.27
2023-04-01T23:00:27.081Z,75.52
2023-04-01T23:05:36.282Z,81.61
2023-04-01T23:10:45.712Z,83.84
2023-04-01T23:15:54.318Z,87.70
2023-04-01T23:21:03.723Z,68.76
2023-04-01T23:26:12.586Z,90.68
2023-04-01T23:31:20.970Z,118.65
2023-04-01T23:36:32.607Z,103.52
2023-04-01T23:41:31.165Z,128.74
2023-04-01T23:46:43.410Z,118.20
2023-04-01T23:51:42.808Z,127.76
2023-04-01T23:56:52.438Z,134.48
